Rowesville, South Carolina
Current Conditions -  °F | °C
As of 7:53 PM on Saturday 22 Nov 2014 (Local Time) from KOGB Reporting Station
Clear Clear  
Wind Chill: 51°   Ceiling: Unl
Heat Index: 51°   Visibility: 10mi
Dew Point: 33°   Wind: 5mph
Humidity: 50%   Direction: 50°NE
Pressure: 30.33"   Gusts: NA
Location:  33.37°N, 80.84°W
Report Text: KOGB 230053Z AUTO 05004KT 10SM CLR 11/01 A3033 RMK AO2 SLP271 T01060006
Loading
Personal Weather Stations






























Interactive Weather Map New forecast layout! Learn more

10-Day Weather Forecast

Advertisements
Track Severe Weather on mobile